sensor_id;sensor_type;location;lat;lon;timestamp;P1;durP1;ratioP1;P2;durP2;ratioP2
41141;SDS011;63666;52.284;20.890;2023-06-04T00:00:43;4.60;;;2.30;;
41141;SDS011;63666;52.284;20.890;2023-06-04T00:03:42;3.80;;;2.00;;
41141;SDS011;63666;52.284;20.890;2023-06-04T00:06:25;4.30;;;2.00;;
41141;SDS011;63666;52.284;20.890;2023-06-04T00:09:03;3.90;;;2.10;;
41141;SDS011;63666;52.284;20.890;2023-06-04T00:11:38;4.30;;;2.20;;
41141;SDS011;63666;52.284;20.890;2023-06-04T00:14:15;4.30;;;1.90;;
41141;SDS011;63666;52.284;20.890;2023-06-04T00:16:55;4.00;;;2.10;;
41141;SDS011;63666;52.284;20.890;2023-06-04T00:19:34;4.20;;;2.10;;
41141;SDS011;63666;52.284;20.890;2023-06-04T00:22:10;4.30;;;2.20;;
41141;SDS011;63666;52.284;20.890;2023-06-04T00:24:46;4.10;;;2.10;;
41141;SDS011;63666;52.284;20.890;2023-06-04T00:27:22;4.00;;;2.00;;
41141;SDS011;63666;52.284;20.890;2023-06-04T00:30:02;4.00;;;2.00;;
41141;SDS011;63666;52.284;20.890;2023-06-04T00:32:38;3.90;;;2.00;;
41141;SDS011;63666;52.284;20.890;2023-06-04T00:35:14;4.10;;;2.20;;
41141;SDS011;63666;52.284;20.890;2023-06-04T00:37:51;3.70;;;2.00;;
41141;SDS011;63666;52.284;20.890;2023-06-04T00:40:30;4.10;;;2.10;;
41141;SDS011;63666;52.284;20.890;2023-06-04T00:43:07;4.40;;;2.20;;
41141;SDS011;63666;52.284;20.890;2023-06-04T00:45:43;4.40;;;1.90;;
41141;SDS011;63666;52.284;20.890;2023-06-04T00:48:20;4.30;;;2.20;;
41141;SDS011;63666;52.284;20.890;2023-06-04T00:50:55;4.30;;;2.00;;
41141;SDS011;63666;52.284;20.890;2023-06-04T00:53:30;4.50;;;2.00;;
41141;SDS011;63666;52.284;20.890;2023-06-04T00:56:09;4.30;;;2.20;;
41141;SDS011;63666;52.284;20.890;2023-06-04T00:58:46;4.20;;;2.10;;
41141;SDS011;63666;52.284;20.890;2023-06-04T01:01:25;4.30;;;2.00;;
41141;SDS011;63666;52.284;20.890;2023-06-04T01:04:04;4.50;;;2.30;;
41141;SDS011;63666;52.284;20.890;2023-06-04T01:06:42;3.80;;;2.00;;
41141;SDS011;63666;52.284;20.890;2023-06-04T01:09:19;3.80;;;1.90;;
41141;SDS011;63666;52.284;20.890;2023-06-04T01:11:57;4.90;;;2.40;;
41141;SDS011;63666;52.284;20.890;2023-06-04T01:14:37;3.90;;;2.00;;
41141;SDS011;63666;52.284;20.890;2023-06-04T01:17:17;4.10;;;1.90;;
41141;SDS011;63666;52.284;20.890;2023-06-04T01:23:14;4.10;;;2.00;;
41141;SDS011;63666;52.284;20.890;2023-06-04T01:25:52;4.40;;;2.00;;
41141;SDS011;63666;52.284;20.890;2023-06-04T01:28:28;4.20;;;2.00;;
41141;SDS011;63666;52.284;20.890;2023-06-04T01:31:04;4.10;;;2.00;;
41141;SDS011;63666;52.284;20.890;2023-06-04T01:33:41;3.80;;;1.80;;
41141;SDS011;63666;52.284;20.890;2023-06-04T01:36:15;3.70;;;1.60;;
41141;SDS011;63666;52.284;20.890;2023-06-04T01:38:52;4.50;;;2.10;;
41141;SDS011;63666;52.284;20.890;2023-06-04T01:41:28;3.80;;;1.70;;
41141;SDS011;63666;52.284;20.890;2023-06-04T01:44:03;3.70;;;1.90;;
41141;SDS011;63666;52.284;20.890;2023-06-04T01:46:40;3.90;;;1.80;;
41141;SDS011;63666;52.284;20.890;2023-06-04T01:49:16;3.70;;;1.90;;
41141;SDS011;63666;52.284;20.890;2023-06-04T01:51:52;3.90;;;1.90;;
41141;SDS011;63666;52.284;20.890;2023-06-04T01:54:30;4.20;;;1.90;;
41141;SDS011;63666;52.284;20.890;2023-06-04T01:57:08;4.30;;;2.00;;
41141;SDS011;63666;52.284;20.890;2023-06-04T01:59:47;3.80;;;1.90;;
41141;SDS011;63666;52.284;20.890;2023-06-04T02:02:26;3.90;;;2.10;;
41141;SDS011;63666;52.284;20.890;2023-06-04T02:05:03;3.70;;;1.80;;
41141;SDS011;63666;52.284;20.890;2023-06-04T02:07:40;3.60;;;1.80;;
41141;SDS011;63666;52.284;20.890;2023-06-04T02:10:18;4.80;;;1.90;;
41141;SDS011;63666;52.284;20.890;2023-06-04T02:12:56;4.10;;;1.90;;
41141;SDS011;63666;52.284;20.890;2023-06-04T02:15:35;3.80;;;1.70;;
41141;SDS011;63666;52.284;20.890;2023-06-04T02:18:17;3.90;;;2.00;;
41141;SDS011;63666;52.284;20.890;2023-06-04T02:20:56;4.40;;;1.90;;
41141;SDS011;63666;52.284;20.890;2023-06-04T02:23:33;4.70;;;2.10;;
41141;SDS011;63666;52.284;20.890;2023-06-04T02:26:07;4.30;;;1.90;;
41141;SDS011;63666;52.284;20.890;2023-06-04T02:28:44;4.10;;;2.00;;
41141;SDS011;63666;52.284;20.890;2023-06-04T02:31:19;4.10;;;1.80;;
41141;SDS011;63666;52.284;20.890;2023-06-04T02:33:53;3.80;;;1.90;;
41141;SDS011;63666;52.284;20.890;2023-06-04T02:36:28;4.30;;;1.90;;
41141;SDS011;63666;52.284;20.890;2023-06-04T02:39:05;3.90;;;1.80;;
41141;SDS011;63666;52.284;20.890;2023-06-04T02:41:41;3.50;;;1.60;;
41141;SDS011;63666;52.284;20.890;2023-06-04T02:44:17;3.80;;;2.00;;
41141;SDS011;63666;52.284;20.890;2023-06-04T02:46:55;4.30;;;2.00;;
41141;SDS011;63666;52.284;20.890;2023-06-04T02:49:31;3.90;;;1.80;;
41141;SDS011;63666;52.284;20.890;2023-06-04T02:52:06;4.20;;;2.00;;
41141;SDS011;63666;52.284;20.890;2023-06-04T02:54:40;4.00;;;1.90;;
41141;SDS011;63666;52.284;20.890;2023-06-04T02:57:16;4.30;;;1.90;;
41141;SDS011;63666;52.284;20.890;2023-06-04T02:59:51;4.40;;;1.90;;
41141;SDS011;63666;52.284;20.890;2023-06-04T03:02:27;3.90;;;1.90;;
41141;SDS011;63666;52.284;20.890;2023-06-04T03:05:07;4.30;;;1.90;;
41141;SDS011;63666;52.284;20.890;2023-06-04T03:07:46;4.00;;;1.70;;
41141;SDS011;63666;52.284;20.890;2023-06-04T03:10:26;3.90;;;1.90;;
41141;SDS011;63666;52.284;20.890;2023-06-04T03:13:06;4.70;;;1.90;;
41141;SDS011;63666;52.284;20.890;2023-06-04T03:15:43;4.00;;;1.80;;
41141;SDS011;63666;52.284;20.890;2023-06-04T03:18:24;3.70;;;1.80;;
41141;SDS011;63666;52.284;20.890;2023-06-04T03:21:01;4.20;;;1.90;;
41141;SDS011;63666;52.284;20.890;2023-06-04T03:23:37;4.00;;;2.00;;
41141;SDS011;63666;52.284;20.890;2023-06-04T03:26:13;4.60;;;1.90;;
41141;SDS011;63666;52.284;20.890;2023-06-04T03:28:50;3.60;;;1.90;;
41141;SDS011;63666;52.284;20.890;2023-06-04T03:31:27;3.80;;;1.70;;
41141;SDS011;63666;52.284;20.890;2023-06-04T03:34:08;3.40;;;1.70;;
41141;SDS011;63666;52.284;20.890;2023-06-04T03:36:47;3.70;;;1.90;;
41141;SDS011;63666;52.284;20.890;2023-06-04T03:39:25;3.90;;;1.90;;
41141;SDS011;63666;52.284;20.890;2023-06-04T03:41:59;4.20;;;1.90;;
41141;SDS011;63666;52.284;20.890;2023-06-04T03:44:34;3.90;;;1.90;;
41141;SDS011;63666;52.284;20.890;2023-06-04T03:47:11;3.90;;;1.60;;
41141;SDS011;63666;52.284;20.890;2023-06-04T03:49:48;4.30;;;2.10;;
41141;SDS011;63666;52.284;20.890;2023-06-04T03:52:24;4.10;;;1.80;;
41141;SDS011;63666;52.284;20.890;2023-06-04T03:54:59;3.90;;;1.90;;
41141;SDS011;63666;52.284;20.890;2023-06-04T03:57:36;4.40;;;1.90;;
41141;SDS011;63666;52.284;20.890;2023-06-04T04:00:13;3.90;;;2.00;;
41141;SDS011;63666;52.284;20.890;2023-06-04T04:02:51;4.30;;;1.90;;
41141;SDS011;63666;52.284;20.890;2023-06-04T04:05:30;4.10;;;1.90;;
41141;SDS011;63666;52.284;20.890;2023-06-04T04:08:09;4.70;;;2.10;;
41141;SDS011;63666;52.284;20.890;2023-06-04T04:10:43;4.40;;;2.00;;
41141;SDS011;63666;52.284;20.890;2023-06-04T04:13:18;4.20;;;1.90;;
41141;SDS011;63666;52.284;20.890;2023-06-04T04:15:54;4.10;;;2.00;;
41141;SDS011;63666;52.284;20.890;2023-06-04T04:18:33;4.00;;;2.20;;
41141;SDS011;63666;52.284;20.890;2023-06-04T04:21:08;3.90;;;2.10;;
41141;SDS011;63666;52.284;20.890;2023-06-04T04:23:44;3.80;;;1.90;;
41141;SDS011;63666;52.284;20.890;2023-06-04T04:26:21;4.90;;;2.10;;
41141;SDS011;63666;52.284;20.890;2023-06-04T04:29:04;4.10;;;2.00;;
41141;SDS011;63666;52.284;20.890;2023-06-04T04:31:44;3.80;;;1.90;;
41141;SDS011;63666;52.284;20.890;2023-06-04T04:34:21;4.30;;;2.00;;
41141;SDS011;63666;52.284;20.890;2023-06-04T04:36:57;3.80;;;2.10;;
41141;SDS011;63666;52.284;20.890;2023-06-04T04:39:32;4.30;;;2.00;;
41141;SDS011;63666;52.284;20.890;2023-06-04T04:42:10;4.30;;;2.00;;
41141;SDS011;63666;52.284;20.890;2023-06-04T04:44:45;3.90;;;2.10;;
41141;SDS011;63666;52.284;20.890;2023-06-04T04:47:20;4.00;;;2.00;;
41141;SDS011;63666;52.284;20.890;2023-06-04T04:49:55;5.10;;;2.20;;
41141;SDS011;63666;52.284;20.890;2023-06-04T04:52:30;3.90;;;1.90;;
41141;SDS011;63666;52.284;20.890;2023-06-04T04:55:07;4.40;;;2.20;;
41141;SDS011;63666;52.284;20.890;2023-06-04T04:57:43;4.00;;;1.80;;
41141;SDS011;63666;52.284;20.890;2023-06-04T05:00:19;3.80;;;1.80;;
41141;SDS011;63666;52.284;20.890;2023-06-04T05:02:54;4.10;;;2.00;;
41141;SDS011;63666;52.284;20.890;2023-06-04T05:05:28;4.10;;;1.90;;
41141;SDS011;63666;52.284;20.890;2023-06-04T05:08:03;5.70;;;2.00;;
41141;SDS011;63666;52.284;20.890;2023-06-04T05:10:38;4.60;;;2.00;;
41141;SDS011;63666;52.284;20.890;2023-06-04T05:13:15;4.00;;;1.80;;
41141;SDS011;63666;52.284;20.890;2023-06-04T05:15:53;3.80;;;1.70;;
41141;SDS011;63666;52.284;20.890;2023-06-04T05:18:40;3.70;;;1.60;;
41141;SDS011;63666;52.284;20.890;2023-06-04T05:21:16;4.10;;;1.70;;
41141;SDS011;63666;52.284;20.890;2023-06-04T05:23:52;3.60;;;1.70;;
41141;SDS011;63666;52.284;20.890;2023-06-04T05:26:30;3.80;;;1.80;;
41141;SDS011;63666;52.284;20.890;2023-06-04T05:29:07;4.10;;;1.70;;
41141;SDS011;63666;52.284;20.890;2023-06-04T05:31:42;4.30;;;1.80;;
41141;SDS011;63666;52.284;20.890;2023-06-04T05:34:18;4.30;;;1.90;;
41141;SDS011;63666;52.284;20.890;2023-06-04T05:36:59;3.60;;;1.50;;
41141;SDS011;63666;52.284;20.890;2023-06-04T05:39:36;3.40;;;1.40;;
41141;SDS011;63666;52.284;20.890;2023-06-04T05:42:10;3.90;;;1.70;;
41141;SDS011;63666;52.284;20.890;2023-06-04T05:44:46;4.00;;;1.50;;
41141;SDS011;63666;52.284;20.890;2023-06-04T05:47:22;4.60;;;1.70;;
41141;SDS011;63666;52.284;20.890;2023-06-04T05:49:56;4.00;;;1.80;;
41141;SDS011;63666;52.284;20.890;2023-06-04T05:52:32;3.70;;;1.60;;
41141;SDS011;63666;52.284;20.890;2023-06-04T05:55:08;4.40;;;1.60;;
41141;SDS011;63666;52.284;20.890;2023-06-04T05:57:43;3.70;;;1.70;;
41141;SDS011;63666;52.284;20.890;2023-06-04T06:00:19;5.30;;;1.80;;
41141;SDS011;63666;52.284;20.890;2023-06-04T06:02:56;5.20;;;1.80;;
41141;SDS011;63666;52.284;20.890;2023-06-04T06:05:32;5.10;;;1.90;;
41141;SDS011;63666;52.284;20.890;2023-06-04T06:08:09;4.90;;;1.90;;
41141;SDS011;63666;52.284;20.890;2023-06-04T06:10:43;5.80;;;1.90;;
41141;SDS011;63666;52.284;20.890;2023-06-04T06:13:16;5.80;;;1.70;;
41141;SDS011;63666;52.284;20.890;2023-06-04T06:15:56;7.40;;;2.00;;
41141;SDS011;63666;52.284;20.890;2023-06-04T06:18:32;5.90;;;2.00;;
41141;SDS011;63666;52.284;20.890;2023-06-04T06:21:10;5.70;;;2.20;;
41141;SDS011;63666;52.284;20.890;2023-06-04T06:23:47;6.00;;;1.80;;
41141;SDS011;63666;52.284;20.890;2023-06-04T06:26:22;5.70;;;1.90;;
41141;SDS011;63666;52.284;20.890;2023-06-04T06:29:01;5.40;;;1.70;;
41141;SDS011;63666;52.284;20.890;2023-06-04T06:31:34;4.60;;;1.70;;
41141;SDS011;63666;52.284;20.890;2023-06-04T06:34:13;4.30;;;1.60;;
41141;SDS011;63666;52.284;20.890;2023-06-04T06:36:49;5.00;;;1.70;;
41141;SDS011;63666;52.284;20.890;2023-06-04T06:39:25;5.50;;;1.70;;
41141;SDS011;63666;52.284;20.890;2023-06-04T06:41:59;4.30;;;1.30;;
41141;SDS011;63666;52.284;20.890;2023-06-04T06:44:36;4.60;;;1.50;;
41141;SDS011;63666;52.284;20.890;2023-06-04T06:47:10;4.80;;;1.60;;
41141;SDS011;63666;52.284;20.890;2023-06-04T06:49:47;4.60;;;1.40;;
41141;SDS011;63666;52.284;20.890;2023-06-04T06:52:23;3.80;;;1.50;;
41141;SDS011;63666;52.284;20.890;2023-06-04T06:55:01;3.50;;;1.30;;
41141;SDS011;63666;52.284;20.890;2023-06-04T06:57:37;3.70;;;1.30;;
41141;SDS011;63666;52.284;20.890;2023-06-04T07:00:14;3.50;;;1.30;;
41141;SDS011;63666;52.284;20.890;2023-06-04T07:02:50;3.40;;;1.30;;
41141;SDS011;63666;52.284;20.890;2023-06-04T07:05:27;4.00;;;1.30;;
41141;SDS011;63666;52.284;20.890;2023-06-04T07:08:01;4.50;;;1.30;;
41141;SDS011;63666;52.284;20.890;2023-06-04T07:10:36;3.60;;;1.50;;
41141;SDS011;63666;52.284;20.890;2023-06-04T07:13:11;4.40;;;1.30;;
41141;SDS011;63666;52.284;20.890;2023-06-04T07:15:48;3.60;;;1.30;;
41141;SDS011;63666;52.284;20.890;2023-06-04T07:18:25;3.90;;;1.30;;
41141;SDS011;63666;52.284;20.890;2023-06-04T07:21:02;3.50;;;1.20;;
41141;SDS011;63666;52.284;20.890;2023-06-04T07:23:41;3.10;;;1.10;;
41141;SDS011;63666;52.284;20.890;2023-06-04T07:26:16;3.00;;;1.00;;
41141;SDS011;63666;52.284;20.890;2023-06-04T07:28:51;2.80;;;1.10;;
41141;SDS011;63666;52.284;20.890;2023-06-04T07:31:27;3.60;;;1.10;;
41141;SDS011;63666;52.284;20.890;2023-06-04T07:34:04;2.90;;;1.00;;
41141;SDS011;63666;52.284;20.890;2023-06-04T07:36:39;3.00;;;1.00;;
41141;SDS011;63666;52.284;20.890;2023-06-04T07:39:14;3.80;;;1.10;;
41141;SDS011;63666;52.284;20.890;2023-06-04T07:41:50;3.00;;;1.10;;
41141;SDS011;63666;52.284;20.890;2023-06-04T07:44:26;3.10;;;1.10;;
41141;SDS011;63666;52.284;20.890;2023-06-04T07:47:01;3.60;;;1.10;;
41141;SDS011;63666;52.284;20.890;2023-06-04T07:49:35;3.00;;;1.20;;
41141;SDS011;63666;52.284;20.890;2023-06-04T07:52:25;2.80;;;1.00;;
41141;SDS011;63666;52.284;20.890;2023-06-04T07:55:00;2.20;;;0.80;;
41141;SDS011;63666;52.284;20.890;2023-06-04T07:57:36;2.70;;;0.80;;
41141;SDS011;63666;52.284;20.890;2023-06-04T08:00:15;2.80;;;0.90;;
41141;SDS011;63666;52.284;20.890;2023-06-04T08:02:50;4.30;;;1.10;;
41141;SDS011;63666;52.284;20.890;2023-06-04T08:05:27;2.90;;;0.90;;
41141;SDS011;63666;52.284;20.890;2023-06-04T08:08:02;3.20;;;1.10;;
41141;SDS011;63666;52.284;20.890;2023-06-04T08:10:36;2.70;;;1.00;;
41141;SDS011;63666;52.284;20.890;2023-06-04T08:13:10;3.20;;;0.90;;
41141;SDS011;63666;52.284;20.890;2023-06-04T08:15:44;3.00;;;0.80;;
41141;SDS011;63666;52.284;20.890;2023-06-04T08:18:18;3.20;;;1.00;;
41141;SDS011;63666;52.284;20.890;2023-06-04T08:20:52;3.20;;;1.00;;
41141;SDS011;63666;52.284;20.890;2023-06-04T08:23:28;3.70;;;1.20;;
41141;SDS011;63666;52.284;20.890;2023-06-04T08:26:03;4.40;;;1.10;;
41141;SDS011;63666;52.284;20.890;2023-06-04T08:28:40;3.60;;;1.00;;
41141;SDS011;63666;52.284;20.890;2023-06-04T08:31:13;3.70;;;1.30;;
41141;SDS011;63666;52.284;20.890;2023-06-04T08:33:50;3.20;;;1.20;;
41141;SDS011;63666;52.284;20.890;2023-06-04T08:36:27;3.90;;;0.90;;
41141;SDS011;63666;52.284;20.890;2023-06-04T08:39:05;3.30;;;0.90;;
41141;SDS011;63666;52.284;20.890;2023-06-04T08:41:44;4.00;;;1.10;;
41141;SDS011;63666;52.284;20.890;2023-06-04T08:44:25;2.60;;;1.00;;
41141;SDS011;63666;52.284;20.890;2023-06-04T08:47:07;2.70;;;0.90;;
41141;SDS011;63666;52.284;20.890;2023-06-04T08:49:46;4.30;;;1.50;;
41141;SDS011;63666;52.284;20.890;2023-06-04T08:52:22;3.80;;;1.10;;
41141;SDS011;63666;52.284;20.890;2023-06-04T08:55:03;4.60;;;1.30;;
41141;SDS011;63666;52.284;20.890;2023-06-04T08:57:38;3.40;;;1.10;;
41141;SDS011;63666;52.284;20.890;2023-06-04T09:00:13;4.20;;;1.40;;
41141;SDS011;63666;52.284;20.890;2023-06-04T09:02:50;3.90;;;1.30;;
41141;SDS011;63666;52.284;20.890;2023-06-04T09:05:24;2.00;;;0.90;;
41141;SDS011;63666;52.284;20.890;2023-06-04T09:08:02;4.00;;;1.20;;
41141;SDS011;63666;52.284;20.890;2023-06-04T09:10:39;3.50;;;1.10;;
41141;SDS011;63666;52.284;20.890;2023-06-04T09:13:15;3.40;;;1.10;;
41141;SDS011;63666;52.284;20.890;2023-06-04T09:15:59;2.50;;;1.00;;
41141;SDS011;63666;52.284;20.890;2023-06-04T09:18:35;3.50;;;1.10;;
41141;SDS011;63666;52.284;20.890;2023-06-04T09:21:11;2.80;;;1.00;;
41141;SDS011;63666;52.284;20.890;2023-06-04T09:23:49;3.10;;;1.10;;
41141;SDS011;63666;52.284;20.890;2023-06-04T09:26:27;3.30;;;1.00;;
41141;SDS011;63666;52.284;20.890;2023-06-04T09:29:02;2.80;;;0.90;;
41141;SDS011;63666;52.284;20.890;2023-06-04T09:31:39;3.00;;;1.00;;
41141;SDS011;63666;52.284;20.890;2023-06-04T09:34:14;3.10;;;1.00;;
41141;SDS011;63666;52.284;20.890;2023-06-04T09:36:54;3.40;;;1.00;;
41141;SDS011;63666;52.284;20.890;2023-06-04T09:39:31;2.80;;;0.90;;
41141;SDS011;63666;52.284;20.890;2023-06-04T09:42:06;3.00;;;0.90;;
41141;SDS011;63666;52.284;20.890;2023-06-04T09:44:47;3.20;;;0.90;;
41141;SDS011;63666;52.284;20.890;2023-06-04T09:47:24;2.90;;;0.90;;
41141;SDS011;63666;52.284;20.890;2023-06-04T09:50:05;3.10;;;0.90;;
41141;SDS011;63666;52.284;20.890;2023-06-04T09:52:41;3.10;;;1.00;;
41141;SDS011;63666;52.284;20.890;2023-06-04T09:55:19;2.90;;;1.00;;
41141;SDS011;63666;52.284;20.890;2023-06-04T09:57:55;3.00;;;0.90;;
41141;SDS011;63666;52.284;20.890;2023-06-04T10:00:30;3.50;;;1.10;;
41141;SDS011;63666;52.284;20.890;2023-06-04T10:03:12;2.20;;;0.80;;
41141;SDS011;63666;52.284;20.890;2023-06-04T10:05:54;3.20;;;1.00;;
41141;SDS011;63666;52.284;20.890;2023-06-04T10:08:30;3.00;;;0.90;;
41141;SDS011;63666;52.284;20.890;2023-06-04T10:11:07;2.60;;;0.90;;
41141;SDS011;63666;52.284;20.890;2023-06-04T10:13:48;2.80;;;0.90;;
41141;SDS011;63666;52.284;20.890;2023-06-04T10:16:26;2.70;;;1.10;;
41141;SDS011;63666;52.284;20.890;2023-06-04T10:19:05;3.10;;;1.00;;
41141;SDS011;63666;52.284;20.890;2023-06-04T10:21:43;3.30;;;1.00;;
41141;SDS011;63666;52.284;20.890;2023-06-04T10:24:19;3.20;;;1.00;;
41141;SDS011;63666;52.284;20.890;2023-06-04T10:26:59;3.40;;;1.00;;
41141;SDS011;63666;52.284;20.890;2023-06-04T10:29:34;3.40;;;1.10;;
41141;SDS011;63666;52.284;20.890;2023-06-04T10:32:09;3.70;;;1.10;;
41141;SDS011;63666;52.284;20.890;2023-06-04T10:34:46;2.80;;;0.90;;
41141;SDS011;63666;52.284;20.890;2023-06-04T10:37:24;2.80;;;1.00;;
41141;SDS011;63666;52.284;20.890;2023-06-04T10:42:41;3.20;;;1.00;;
41141;SDS011;63666;52.284;20.890;2023-06-04T10:45:30;2.80;;;1.00;;
41141;SDS011;63666;52.284;20.890;2023-06-04T10:48:08;3.20;;;1.20;;
41141;SDS011;63666;52.284;20.890;2023-06-04T10:50:53;3.10;;;1.10;;
41141;SDS011;63666;52.284;20.890;2023-06-04T10:53:37;2.60;;;1.00;;
41141;SDS011;63666;52.284;20.890;2023-06-04T10:56:13;3.80;;;1.10;;
41141;SDS011;63666;52.284;20.890;2023-06-04T10:58:59;2.60;;;0.90;;
41141;SDS011;63666;52.284;20.890;2023-06-04T11:01:34;3.40;;;0.90;;
41141;SDS011;63666;52.284;20.890;2023-06-04T11:04:19;2.70;;;0.90;;
41141;SDS011;63666;52.284;20.890;2023-06-04T11:07:04;2.50;;;0.90;;
41141;SDS011;63666;52.284;20.890;2023-06-04T11:09:50;2.70;;;0.90;;
41141;SDS011;63666;52.284;20.890;2023-06-04T11:12:26;2.90;;;0.90;;
41141;SDS011;63666;52.284;20.890;2023-06-04T11:15:00;3.20;;;1.10;;
41141;SDS011;63666;52.284;20.890;2023-06-04T11:17:34;2.70;;;1.00;;
41141;SDS011;63666;52.284;20.890;2023-06-04T11:20:17;2.90;;;1.00;;
41141;SDS011;63666;52.284;20.890;2023-06-04T11:22:55;2.90;;;1.00;;
41141;SDS011;63666;52.284;20.890;2023-06-04T11:25:35;2.80;;;0.90;;
41141;SDS011;63666;52.284;20.890;2023-06-04T11:28:16;2.60;;;1.00;;
41141;SDS011;63666;52.284;20.890;2023-06-04T11:30:58;3.00;;;1.00;;
41141;SDS011;63666;52.284;20.890;2023-06-04T11:33:44;2.90;;;1.10;;
41141;SDS011;63666;52.284;20.890;2023-06-04T11:36:26;3.10;;;1.00;;
41141;SDS011;63666;52.284;20.890;2023-06-04T11:39:02;2.40;;;0.90;;
41141;SDS011;63666;52.284;20.890;2023-06-04T11:41:38;3.60;;;1.00;;
41141;SDS011;63666;52.284;20.890;2023-06-04T11:44:13;2.60;;;0.90;;
41141;SDS011;63666;52.284;20.890;2023-06-04T11:46:47;3.40;;;1.10;;
41141;SDS011;63666;52.284;20.890;2023-06-04T11:49:23;2.20;;;0.90;;
41141;SDS011;63666;52.284;20.890;2023-06-04T11:51:58;2.50;;;0.90;;
41141;SDS011;63666;52.284;20.890;2023-06-04T11:54:34;2.70;;;0.90;;
41141;SDS011;63666;52.284;20.890;2023-06-04T11:57:12;2.70;;;1.00;;
41141;SDS011;63666;52.284;20.890;2023-06-04T11:59:48;2.70;;;1.10;;
41141;SDS011;63666;52.284;20.890;2023-06-04T12:02:23;3.30;;;1.10;;
41141;SDS011;63666;52.284;20.890;2023-06-04T12:05:01;2.40;;;0.90;;
41141;SDS011;63666;52.284;20.890;2023-06-04T12:07:45;3.10;;;1.10;;
41141;SDS011;63666;52.284;20.890;2023-06-04T12:10:23;2.40;;;1.00;;
41141;SDS011;63666;52.284;20.890;2023-06-04T12:12:57;2.20;;;0.90;;
41141;SDS011;63666;52.284;20.890;2023-06-04T12:15:32;3.30;;;1.20;;
41141;SDS011;63666;52.284;20.890;2023-06-04T12:18:05;2.60;;;1.00;;
41141;SDS011;63666;52.284;20.890;2023-06-04T12:20:44;3.20;;;1.20;;
41141;SDS011;63666;52.284;20.890;2023-06-04T12:23:22;6.70;;;2.50;;
41141;SDS011;63666;52.284;20.890;2023-06-04T12:25:56;4.80;;;1.90;;
41141;SDS011;63666;52.284;20.890;2023-06-04T12:28:35;4.90;;;1.70;;
41141;SDS011;63666;52.284;20.890;2023-06-04T12:31:19;5.10;;;1.70;;
41141;SDS011;63666;52.284;20.890;2023-06-04T12:33:56;4.10;;;1.40;;
41141;SDS011;63666;52.284;20.890;2023-06-04T12:36:31;4.90;;;1.50;;
41141;SDS011;63666;52.284;20.890;2023-06-04T12:39:09;7.60;;;2.50;;
41141;SDS011;63666;52.284;20.890;2023-06-04T12:41:48;5.40;;;2.20;;
41141;SDS011;63666;52.284;20.890;2023-06-04T12:44:24;5.30;;;2.30;;
41141;SDS011;63666;52.284;20.890;2023-06-04T12:46:59;5.30;;;2.10;;
41141;SDS011;63666;52.284;20.890;2023-06-04T12:49:34;5.50;;;2.10;;
41141;SDS011;63666;52.284;20.890;2023-06-04T12:52:09;5.40;;;1.80;;
41141;SDS011;63666;52.284;20.890;2023-06-04T12:54:47;6.50;;;2.00;;
41141;SDS011;63666;52.284;20.890;2023-06-04T12:57:22;5.90;;;1.90;;
41141;SDS011;63666;52.284;20.890;2023-06-04T12:59:57;4.70;;;1.70;;
41141;SDS011;63666;52.284;20.890;2023-06-04T13:02:34;5.40;;;1.60;;
41141;SDS011;63666;52.284;20.890;2023-06-04T13:05:11;5.00;;;1.70;;
41141;SDS011;63666;52.284;20.890;2023-06-04T13:07:50;4.40;;;1.70;;
41141;SDS011;63666;52.284;20.890;2023-06-04T13:10:25;4.00;;;1.40;;
41141;SDS011;63666;52.284;20.890;2023-06-04T13:12:59;3.60;;;1.40;;
41141;SDS011;63666;52.284;20.890;2023-06-04T13:15:34;4.40;;;1.70;;
41141;SDS011;63666;52.284;20.890;2023-06-04T13:18:08;3.90;;;1.40;;
41141;SDS011;63666;52.284;20.890;2023-06-04T13:20:47;4.10;;;1.30;;
41141;SDS011;63666;52.284;20.890;2023-06-04T13:23:22;4.30;;;1.30;;
41141;SDS011;63666;52.284;20.890;2023-06-04T13:26:09;3.30;;;1.30;;
41141;SDS011;63666;52.284;20.890;2023-06-04T13:28:46;3.90;;;1.30;;
41141;SDS011;63666;52.284;20.890;2023-06-04T13:31:22;3.60;;;1.40;;
41141;SDS011;63666;52.284;20.890;2023-06-04T13:33:57;4.00;;;1.30;;
41141;SDS011;63666;52.284;20.890;2023-06-04T13:36:45;4.30;;;1.30;;
41141;SDS011;63666;52.284;20.890;2023-06-04T13:39:19;3.30;;;1.10;;
41141;SDS011;63666;52.284;20.890;2023-06-04T13:41:57;3.70;;;1.20;;
41141;SDS011;63666;52.284;20.890;2023-06-04T13:44:31;3.30;;;1.10;;
41141;SDS011;63666;52.284;20.890;2023-06-04T13:47:06;3.70;;;1.30;;
41141;SDS011;63666;52.284;20.890;2023-06-04T13:49:45;4.00;;;1.40;;
41141;SDS011;63666;52.284;20.890;2023-06-04T13:52:19;3.50;;;1.30;;
41141;SDS011;63666;52.284;20.890;2023-06-04T13:54:54;4.20;;;1.30;;
41141;SDS011;63666;52.284;20.890;2023-06-04T13:57:29;3.20;;;1.20;;
41141;SDS011;63666;52.284;20.890;2023-06-04T14:00:09;3.50;;;1.20;;
41141;SDS011;63666;52.284;20.890;2023-06-04T14:02:46;2.80;;;1.00;;
41141;SDS011;63666;52.284;20.890;2023-06-04T14:05:22;2.70;;;1.00;;
41141;SDS011;63666;52.284;20.890;2023-06-04T14:08:00;2.50;;;1.00;;
41141;SDS011;63666;52.284;20.890;2023-06-04T14:10:37;3.70;;;1.20;;
41141;SDS011;63666;52.284;20.890;2023-06-04T14:13:12;2.90;;;1.00;;
41141;SDS011;63666;52.284;20.890;2023-06-04T14:15:49;2.90;;;1.00;;
41141;SDS011;63666;52.284;20.890;2023-06-04T14:18:26;3.20;;;1.10;;
41141;SDS011;63666;52.284;20.890;2023-06-04T14:21:00;3.10;;;1.10;;
41141;SDS011;63666;52.284;20.890;2023-06-04T14:23:38;2.90;;;1.10;;
41141;SDS011;63666;52.284;20.890;2023-06-04T14:26:14;3.30;;;1.20;;
41141;SDS011;63666;52.284;20.890;2023-06-04T14:28:49;2.80;;;1.10;;
41141;SDS011;63666;52.284;20.890;2023-06-04T14:31:25;2.60;;;1.10;;
41141;SDS011;63666;52.284;20.890;2023-06-04T14:33:58;2.50;;;1.00;;
41141;SDS011;63666;52.284;20.890;2023-06-04T14:36:32;2.90;;;1.00;;
41141;SDS011;63666;52.284;20.890;2023-06-04T14:39:07;2.40;;;1.00;;
41141;SDS011;63666;52.284;20.890;2023-06-04T14:41:44;2.70;;;1.10;;
41141;SDS011;63666;52.284;20.890;2023-06-04T14:44:20;2.20;;;1.00;;
41141;SDS011;63666;52.284;20.890;2023-06-04T14:46:56;2.60;;;1.00;;
41141;SDS011;63666;52.284;20.890;2023-06-04T14:49:37;3.00;;;1.20;;
41141;SDS011;63666;52.284;20.890;2023-06-04T14:52:15;2.80;;;1.00;;
41141;SDS011;63666;52.284;20.890;2023-06-04T14:54:50;2.80;;;1.00;;
41141;SDS011;63666;52.284;20.890;2023-06-04T14:57:26;3.10;;;1.00;;
41141;SDS011;63666;52.284;20.890;2023-06-04T15:00:02;2.60;;;1.10;;
41141;SDS011;63666;52.284;20.890;2023-06-04T15:02:39;2.80;;;1.00;;
41141;SDS011;63666;52.284;20.890;2023-06-04T15:05:15;2.50;;;0.90;;
41141;SDS011;63666;52.284;20.890;2023-06-04T15:07:53;2.60;;;1.00;;
41141;SDS011;63666;52.284;20.890;2023-06-04T15:10:28;4.40;;;1.50;;
41141;SDS011;63666;52.284;20.890;2023-06-04T15:13:02;4.60;;;1.50;;
41141;SDS011;63666;52.284;20.890;2023-06-04T15:15:37;3.80;;;1.10;;
41141;SDS011;63666;52.284;20.890;2023-06-04T15:18:11;3.90;;;1.10;;
41141;SDS011;63666;52.284;20.890;2023-06-04T15:20:44;3.30;;;1.30;;
41141;SDS011;63666;52.284;20.890;2023-06-04T15:23:22;4.20;;;1.30;;
41141;SDS011;63666;52.284;20.890;2023-06-04T15:25:59;3.40;;;1.10;;
41141;SDS011;63666;52.284;20.890;2023-06-04T15:28:32;3.80;;;1.20;;
41141;SDS011;63666;52.284;20.890;2023-06-04T15:31:10;4.70;;;1.20;;
41141;SDS011;63666;52.284;20.890;2023-06-04T15:33:44;3.60;;;1.20;;
41141;SDS011;63666;52.284;20.890;2023-06-04T15:36:20;3.50;;;1.10;;